createdAt,value
2018-12-07T00:00:48.615Z,1007.52
2018-12-07T00:01:48.593Z,1007.52
2018-12-07T00:02:48.584Z,1007.45
2018-12-07T00:03:48.573Z,1007.42
2018-12-07T00:04:48.562Z,1007.39
2018-12-07T00:05:48.560Z,1007.42
2018-12-07T00:06:48.538Z,1007.43
2018-12-07T00:07:48.531Z,1007.42
2018-12-07T00:08:48.523Z,1007.39
2018-12-07T00:09:48.508Z,1007.33
2018-12-07T00:10:48.508Z,1007.39
2018-12-07T00:11:48.486Z,1007.38
2018-12-07T00:12:48.479Z,1007.34
2018-12-07T00:13:48.514Z,1007.33
2018-12-07T00:14:48.453Z,1007.34
2018-12-07T00:15:48.474Z,1007.32
2018-12-07T00:16:48.431Z,1007.32
2018-12-07T00:17:48.421Z,1007.33
2018-12-07T00:18:48.413Z,1007.31
2018-12-07T00:19:48.408Z,1007.26
2018-12-07T00:20:48.390Z,1007.27
2018-12-07T00:21:48.393Z,1007.27
2018-12-07T00:22:48.368Z,1007.22
2018-12-07T00:23:48.356Z,1007.25
2018-12-07T00:24:48.347Z,1007.27
2018-12-07T00:25:48.339Z,1007.31
2018-12-07T00:26:48.335Z,1007.27
2018-12-07T00:27:48.314Z,1007.21
2018-12-07T00:28:48.306Z,1007.30
2018-12-07T00:29:48.293Z,1007.23
2018-12-07T00:30:48.283Z,1007.23
2018-12-07T00:31:48.287Z,1007.22
2018-12-07T00:32:48.262Z,1007.14
2018-12-07T00:33:48.253Z,1007.09
2018-12-07T00:34:48.243Z,1007.11
2018-12-07T00:35:48.227Z,1007.10
2018-12-07T00:36:48.234Z,1007.01
2018-12-07T00:37:48.208Z,1006.95
2018-12-07T00:38:48.199Z,1006.96
2018-12-07T00:39:48.187Z,1006.93
2018-12-07T00:40:48.175Z,1006.92
2018-12-07T00:41:48.262Z,1006.97
2018-12-07T00:42:48.163Z,1006.98
2018-12-07T00:43:48.148Z,1007.00
2018-12-07T00:44:48.425Z,1007.00
2018-12-07T00:45:48.124Z,1007.00
2018-12-07T00:46:48.131Z,1007.02
2018-12-07T00:47:48.108Z,1007.02
2018-12-07T00:48:48.090Z,1007.06
2018-12-07T00:49:48.094Z,1007.10
2018-12-07T00:50:48.073Z,1007.08
2018-12-07T00:51:48.072Z,1007.10
2018-12-07T00:52:48.047Z,1007.06
2018-12-07T00:53:48.037Z,1007.09
2018-12-07T00:54:48.028Z,1007.08
2018-12-07T00:55:48.017Z,1007.03
2018-12-07T00:56:48.017Z,1007.02
2018-12-07T00:57:47.995Z,1006.99
2018-12-07T00:58:47.983Z,1007.03
2018-12-07T00:59:47.979Z,1007.00
2018-12-07T01:00:47.964Z,1006.95
2018-12-07T01:01:47.951Z,1006.94
2018-12-07T01:02:47.953Z,1006.90
2018-12-07T01:03:47.931Z,1006.85
2018-12-07T01:04:47.918Z,1006.87
2018-12-07T01:05:47.910Z,1006.86
2018-12-07T01:06:47.898Z,1006.84
2018-12-07T01:07:47.902Z,1006.72
2018-12-07T01:08:47.878Z,1006.76
2018-12-07T01:09:47.867Z,1006.69
2018-12-07T01:10:47.860Z,1006.67
2018-12-07T01:11:47.846Z,1006.67
2018-12-07T01:12:47.844Z,1006.72
2018-12-07T01:13:47.824Z,1006.71
2018-12-07T01:14:47.816Z,1006.71
2018-12-07T01:15:47.804Z,1006.69
2018-12-07T01:16:47.791Z,1006.70
2018-12-07T01:17:47.794Z,1006.70
2018-12-07T01:18:47.772Z,1006.69
2018-12-07T01:19:47.758Z,1006.70
2018-12-07T01:20:47.748Z,1006.69
2018-12-07T01:21:47.736Z,1006.70
2018-12-07T01:22:47.739Z,1006.68
2018-12-07T01:23:47.715Z,1006.69
2018-12-07T01:24:47.703Z,1006.66
2018-12-07T01:25:47.693Z,1006.63
2018-12-07T01:26:47.688Z,1006.64
2018-12-07T01:27:47.685Z,1006.63
2018-12-07T01:28:47.662Z,1006.56
2018-12-07T01:29:47.654Z,1006.62
2018-12-07T01:30:47.642Z,1006.61
2018-12-07T01:31:47.632Z,1006.66
2018-12-07T01:32:47.630Z,1006.67
2018-12-07T01:33:47.609Z,1006.67
2018-12-07T01:34:47.598Z,1006.66
2018-12-07T01:35:47.589Z,1006.69
2018-12-07T01:36:47.579Z,1006.62
2018-12-07T01:37:47.577Z,1006.61
2018-12-07T01:38:47.565Z,1006.60
2018-12-07T01:39:47.545Z,1006.60
2018-12-07T01:40:47.531Z,1006.63
2018-12-07T01:41:47.523Z,1006.61
2018-12-07T01:42:47.522Z,1006.59
2018-12-07T01:43:47.501Z,1006.61
2018-12-07T01:44:47.491Z,1006.63
2018-12-07T01:45:47.480Z,1006.63
2018-12-07T01:46:47.466Z,1006.64
2018-12-07T01:47:47.468Z,1006.65
2018-12-07T01:48:47.446Z,1006.62
2018-12-07T01:49:47.440Z,1006.59
2018-12-07T01:50:47.425Z,1006.59
2018-12-07T01:51:47.414Z,1006.53
2018-12-07T01:52:47.438Z,1006.49
2018-12-07T01:53:47.394Z,1006.53
2018-12-07T01:54:47.382Z,1006.52
2018-12-07T01:55:47.371Z,1006.50
2018-12-07T01:56:47.360Z,1006.47
2018-12-07T01:57:47.348Z,1006.42
2018-12-07T01:58:47.351Z,1006.45
2018-12-07T01:59:47.333Z,1006.46
2018-12-07T02:00:47.318Z,1006.48
2018-12-07T02:01:47.309Z,1006.48
2018-12-07T02:02:47.297Z,1006.46
2018-12-07T02:03:47.298Z,1006.41
2018-12-07T02:04:47.273Z,1006.38
2018-12-07T02:05:47.264Z,1006.33
2018-12-07T02:06:47.252Z,1006.27
2018-12-07T02:07:47.243Z,1006.27
2018-12-07T02:08:47.240Z,1006.21
2018-12-07T02:09:47.220Z,1006.24
2018-12-07T02:10:47.210Z,1006.19
2018-12-07T02:11:47.200Z,1006.22
2018-12-07T02:12:47.187Z,1006.22
2018-12-07T02:13:47.191Z,1006.23
2018-12-07T02:14:47.166Z,1006.17
2018-12-07T02:15:47.152Z,1006.16
2018-12-07T02:16:47.144Z,1006.16
2018-12-07T02:17:47.132Z,1006.12
2018-12-07T02:18:47.135Z,1006.07
2018-12-07T02:19:47.112Z,1006.10
2018-12-07T02:20:47.101Z,1006.05
2018-12-07T02:21:47.089Z,1006.11
2018-12-07T02:22:47.082Z,1006.06
2018-12-07T02:23:47.086Z,1006.00
2018-12-07T02:24:47.056Z,1006.01
2018-12-07T02:25:47.045Z,1005.99
2018-12-07T02:26:47.036Z,1006.00
2018-12-07T02:27:47.033Z,1005.99
2018-12-07T02:28:47.027Z,1005.99
2018-12-07T02:29:47.004Z,1005.98
2018-12-07T02:30:46.992Z,1005.95
2018-12-07T02:31:46.980Z,1005.87
2018-12-07T02:32:46.971Z,1005.92
2018-12-07T02:33:46.993Z,1005.94
2018-12-07T02:34:46.957Z,1005.93
2018-12-07T02:35:46.939Z,1005.95
2018-12-07T02:36:46.927Z,1005.92
2018-12-07T02:37:46.915Z,1005.85
2018-12-07T02:38:46.907Z,1005.84
2018-12-07T02:39:46.910Z,1005.85
2018-12-07T02:40:46.891Z,1005.79
2018-12-07T02:41:46.875Z,1005.80
2018-12-07T02:42:47.582Z,1005.76
2018-12-07T02:43:46.851Z,1005.77
2018-12-07T02:44:46.852Z,1005.78
2018-12-07T02:45:46.832Z,1005.75
2018-12-07T02:46:46.817Z,1005.77
2018-12-07T02:47:46.805Z,1005.78
2018-12-07T02:48:46.797Z,1005.71
2018-12-07T02:49:46.799Z,1005.72
2018-12-07T02:50:46.776Z,1005.67
2018-12-07T02:51:46.765Z,1005.70
2018-12-07T02:52:46.754Z,1005.64
2018-12-07T02:53:46.743Z,1005.62
2018-12-07T02:54:46.743Z,1005.64
2018-12-07T02:55:46.721Z,1005.62
2018-12-07T02:56:46.711Z,1005.57
2018-12-07T02:57:46.698Z,1005.59
2018-12-07T02:58:46.699Z,1005.60
2018-12-07T02:59:46.696Z,1005.54
2018-12-07T03:00:46.666Z,1005.53
2018-12-07T03:01:46.661Z,1005.57
2018-12-07T03:02:46.647Z,1005.54
2018-12-07T03:03:46.639Z,1005.52
2018-12-07T03:04:46.822Z,1005.48
2018-12-07T03:05:46.618Z,1005.45
2018-12-07T03:06:46.604Z,1005.46
2018-12-07T03:07:46.591Z,1005.42
2018-12-07T03:08:46.582Z,1005.46
2018-12-07T03:09:46.569Z,1005.39
2018-12-07T03:10:46.568Z,1005.37
2018-12-07T03:11:46.545Z,1005.44
2018-12-07T03:12:46.539Z,1005.39
2018-12-07T03:13:46.527Z,1005.39
2018-12-07T03:14:46.517Z,1005.37
2018-12-07T03:15:46.513Z,1005.38
2018-12-07T03:16:46.492Z,1005.34
2018-12-07T03:17:46.480Z,1005.31
2018-12-07T03:18:46.475Z,1005.32
2018-12-07T03:19:46.461Z,1005.29
2018-12-07T03:20:46.458Z,1005.30
2018-12-07T03:21:46.441Z,1005.34
2018-12-07T03:22:46.429Z,1005.26
2018-12-07T03:23:46.415Z,1005.27
2018-12-07T03:24:46.410Z,1005.27
2018-12-07T03:25:46.407Z,1005.28
2018-12-07T03:26:46.383Z,1005.23
2018-12-07T03:27:46.372Z,1005.20
2018-12-07T03:28:46.360Z,1005.28
2018-12-07T03:29:46.350Z,1005.24
2018-12-07T03:30:46.356Z,1005.23
2018-12-07T03:31:46.331Z,1005.20
2018-12-07T03:32:46.319Z,1005.18
2018-12-07T03:33:46.314Z,1005.15
2018-12-07T03:34:46.301Z,1005.14
2018-12-07T03:35:46.300Z,1005.15
2018-12-07T03:36:46.278Z,1005.16
2018-12-07T03:37:46.266Z,1005.16
2018-12-07T03:38:46.253Z,1005.16
2018-12-07T03:39:46.248Z,1005.12
2018-12-07T03:40:46.247Z,1005.13
2018-12-07T03:41:46.227Z,1005.09
2018-12-07T03:42:46.211Z,1005.13
2018-12-07T03:43:46.204Z,1005.11
2018-12-07T03:44:46.190Z,1005.05
2018-12-07T03:45:46.181Z,1005.10
2018-12-07T03:46:46.184Z,1005.08
2018-12-07T03:47:46.159Z,1005.07
2018-12-07T03:48:46.151Z,1005.06
2018-12-07T03:49:46.137Z,1005.07
2018-12-07T03:50:46.122Z,1005.04
2018-12-07T03:51:46.127Z,1005.01
2018-12-07T03:52:46.104Z,1004.96
2018-12-07T03:53:46.092Z,1004.97
2018-12-07T03:54:46.083Z,1004.96
2018-12-07T03:55:46.072Z,1005.00
2018-12-07T03:56:46.070Z,1005.00
2018-12-07T03:57:46.072Z,1005.04
2018-12-07T03:58:46.038Z,1005.00
2018-12-07T03:59:46.025Z,1004.98
2018-12-07T04:00:46.017Z,1004.97
2018-12-07T04:01:46.017Z,1004.96
2018-12-07T04:02:45.997Z,1004.98
2018-12-07T04:03:45.984Z,1004.98
2018-12-07T04:04:45.972Z,1004.95
2018-12-07T04:05:45.961Z,1004.97
2018-12-07T04:06:45.962Z,1004.98
2018-12-07T04:07:45.942Z,1004.95
2018-12-07T04:08:45.931Z,1004.98
2018-12-07T04:09:45.923Z,1004.95
2018-12-07T04:10:45.911Z,1004.88
2018-12-07T04:11:45.908Z,1004.86
2018-12-07T04:12:45.887Z,1004.83
2018-12-07T04:13:45.873Z,1004.86
2018-12-07T04:14:45.863Z,1004.87
2018-12-07T04:15:45.854Z,1004.83
2018-12-07T04:16:45.880Z,1004.86
2018-12-07T04:17:45.837Z,1004.85
2018-12-07T04:18:45.820Z,1004.85
2018-12-07T04:19:45.809Z,1004.81
2018-12-07T04:20:45.805Z,1004.81
2018-12-07T04:21:45.824Z,1004.74
2018-12-07T04:22:45.780Z,1004.73
2018-12-07T04:23:45.771Z,1004.77
2018-12-07T04:24:45.758Z,1004.78
2018-12-07T04:25:45.746Z,1004.80
2018-12-07T04:26:45.739Z,1004.77
2018-12-07T04:27:45.735Z,1004.76
2018-12-07T04:28:45.711Z,1004.75
2018-12-07T04:29:45.708Z,1004.80
2018-12-07T04:30:45.693Z,1004.76
2018-12-07T04:31:45.680Z,1004.73
2018-12-07T04:32:45.710Z,1004.78
2018-12-07T04:33:45.661Z,1004.79
2018-12-07T04:34:45.646Z,1004.74
2018-12-07T04:35:45.637Z,1004.74
2018-12-07T04:36:45.628Z,1004.75
2018-12-07T04:37:45.637Z,1004.80
2018-12-07T04:38:45.605Z,1004.75
2018-12-07T04:39:45.595Z,1004.71
2018-12-07T04:40:45.593Z,1004.68
2018-12-07T04:41:45.575Z,1004.69
2018-12-07T04:42:45.580Z,1004.76
2018-12-07T04:43:45.549Z,1004.75
2018-12-07T04:44:45.539Z,1004.76
2018-12-07T04:45:45.526Z,1004.73
2018-12-07T04:46:45.517Z,1004.70
2018-12-07T04:47:45.522Z,1004.69
2018-12-07T04:48:45.506Z,1004.79
2018-12-07T04:49:45.486Z,1004.72
2018-12-07T04:50:45.487Z,1004.73
2018-12-07T04:51:45.465Z,1004.70
2018-12-07T04:52:45.470Z,1004.70
2018-12-07T04:53:45.449Z,1004.65
2018-12-07T04:54:45.434Z,1004.66
2018-12-07T04:55:45.430Z,1004.62
2018-12-07T04:56:45.410Z,1004.65
2018-12-07T04:57:45.439Z,1004.67
2018-12-07T04:58:45.388Z,1004.61
2018-12-07T04:59:45.375Z,1004.63
2018-12-07T05:00:45.367Z,1004.59
2018-12-07T05:01:45.355Z,1004.58
2018-12-07T05:02:45.343Z,1004.56
2018-12-07T05:03:45.355Z,1004.55
2018-12-07T05:04:45.321Z,1004.55
2018-12-07T05:05:45.342Z,1004.52
2018-12-07T05:06:45.316Z,1004.48
2018-12-07T05:07:45.289Z,1004.51
2018-12-07T05:08:45.294Z,1004.54
2018-12-07T05:09:45.268Z,1004.47
2018-12-07T05:10:45.260Z,1004.46
2018-12-07T05:11:45.257Z,1004.50
2018-12-07T05:12:45.235Z,1004.51
2018-12-07T05:13:45.239Z,1004.49
2018-12-07T05:14:45.225Z,1004.48
2018-12-07T05:15:45.209Z,1004.52
2018-12-07T05:16:45.194Z,1004.51
2018-12-07T05:17:45.183Z,1004.50
2018-12-07T05:18:45.182Z,1004.46
2018-12-07T05:19:45.161Z,1004.48
2018-12-07T05:20:45.153Z,1004.46
2018-12-07T05:21:45.142Z,1004.46
2018-12-07T05:22:45.130Z,1004.47
2018-12-07T05:23:45.128Z,1004.48
2018-12-07T05:24:45.114Z,1004.48
2018-12-07T05:25:45.096Z,1004.49
2018-12-07T05:26:45.086Z,1004.49
2018-12-07T05:27:45.075Z,1004.47
2018-12-07T05:28:45.104Z,1004.51
2018-12-07T05:29:45.059Z,1004.49
2018-12-07T05:30:45.050Z,1004.51
2018-12-07T05:31:45.049Z,1004.54
2018-12-07T05:32:45.021Z,1004.53
2018-12-07T05:33:45.022Z,1004.52
2018-12-07T05:34:45.015Z,1004.46
2018-12-07T05:35:44.990Z,1004.49
2018-12-07T05:36:44.978Z,1004.49
2018-12-07T05:37:44.966Z,1004.48
2018-12-07T05:38:44.969Z,1004.51
2018-12-07T05:39:44.957Z,1004.38
2018-12-07T05:40:44.932Z,1004.43
2018-12-07T05:41:44.939Z,1004.41
2018-12-07T05:42:44.914Z,1004.38
2018-12-07T05:43:44.899Z,1004.39
2018-12-07T05:44:44.903Z,1004.42
2018-12-07T05:45:44.881Z,1004.47
2018-12-07T05:46:44.884Z,1004.48
2018-12-07T05:47:44.860Z,1004.44
2018-12-07T05:48:44.847Z,1004.47
2018-12-07T05:49:44.851Z,1004.51
2018-12-07T05:50:44.827Z,1004.57
2018-12-07T05:51:44.827Z,1004.52
2018-12-07T05:52:44.805Z,1004.50
2018-12-07T05:53:44.799Z,1004.48
2018-12-07T05:54:44.793Z,1004.40
2018-12-07T05:55:44.774Z,1004.40
2018-12-07T05:56:44.769Z,1004.46
2018-12-07T05:57:44.751Z,1004.40
2018-12-07T05:58:44.758Z,1004.49
2018-12-07T05:59:44.741Z,1004.48
2018-12-07T06:00:44.720Z,1004.42
2018-12-07T06:01:44.714Z,1004.41
2018-12-07T06:02:44.698Z,1004.39
2018-12-07T06:03:44.686Z,1004.44
2018-12-07T06:04:44.673Z,1004.36
2018-12-07T06:05:44.676Z,1004.37
2018-12-07T06:06:44.655Z,1004.34
2018-12-07T06:07:44.654Z,1004.43
2018-12-07T06:08:44.631Z,1004.45
2018-12-07T06:09:44.622Z,1004.41
2018-12-07T06:10:44.623Z,1004.39
2018-12-07T06:11:44.601Z,1004.38
2018-12-07T06:12:44.599Z,1004.35
2018-12-07T06:13:44.590Z,1004.34
2018-12-07T06:14:44.572Z,1004.40
2018-12-07T06:15:44.570Z,1004.43
2018-12-07T06:16:44.553Z,1004.37
2018-12-07T06:17:44.622Z,1004.41
2018-12-07T06:18:44.531Z,1004.42
2018-12-07T06:19:44.514Z,1004.39
2018-12-07T06:20:44.532Z,1004.39
2018-12-07T06:21:44.491Z,1004.38
2018-12-07T06:22:44.506Z,1004.42
2018-12-07T06:23:44.470Z,1004.36
2018-12-07T06:24:44.478Z,1004.33
2018-12-07T06:25:44.485Z,1004.37
2018-12-07T06:26:44.440Z,1004.34
2018-12-07T06:27:44.425Z,1004.32
2018-12-07T06:28:44.416Z,1004.35
2018-12-07T06:29:44.407Z,1004.30
2018-12-07T06:30:44.417Z,1004.32
2018-12-07T06:31:44.413Z,1004.24
2018-12-07T06:32:44.390Z,1004.22
2018-12-07T06:33:44.362Z,1004.23
2018-12-07T06:34:44.351Z,1004.18
2018-12-07T06:35:44.340Z,1004.17
2018-12-07T06:36:44.343Z,1004.24
2018-12-07T06:37:44.329Z,1004.20
2018-12-07T06:38:44.321Z,1004.24
2018-12-07T06:39:44.309Z,1004.22
2018-12-07T06:40:44.293Z,1004.19
2018-12-07T06:41:44.293Z,1004.22
2018-12-07T06:42:44.266Z,1004.19
2018-12-07T06:43:44.257Z,1004.17
2018-12-07T06:44:44.243Z,1004.20
2018-12-07T06:45:44.233Z,1004.16
2018-12-07T06:46:44.233Z,1004.20
2018-12-07T06:47:44.210Z,1004.12
2018-12-07T06:48:44.200Z,1004.11
2018-12-07T06:49:44.193Z,1004.13
2018-12-07T06:50:44.180Z,1004.17
2018-12-07T06:51:44.177Z,1004.14
2018-12-07T06:52:44.161Z,1004.14
2018-12-07T06:53:44.150Z,1004.07
2018-12-07T06:54:44.143Z,1004.02
2018-12-07T06:55:44.124Z,1003.99
2018-12-07T06:56:44.125Z,1003.99
2018-12-07T06:57:44.109Z,1004.01
2018-12-07T06:58:44.095Z,1004.03
2018-12-07T06:59:44.083Z,1003.98
2018-12-07T07:00:44.070Z,1004.03
2018-12-07T07:01:44.106Z,1004.00
2018-12-07T07:02:44.051Z,1003.99
2018-12-07T07:03:44.042Z,1003.97
2018-12-07T07:04:44.042Z,1003.99
2018-12-07T07:05:44.025Z,1003.97
2018-12-07T07:06:44.018Z,1003.95
2018-12-07T07:07:44.013Z,1003.97
2018-12-07T07:08:43.985Z,1003.99
2018-12-07T07:09:43.973Z,1003.96
2018-12-07T07:10:43.963Z,1003.97
2018-12-07T07:11:43.961Z,1003.97
2018-12-07T07:12:43.955Z,1003.96
2018-12-07T07:13:43.953Z,1003.98
2018-12-07T07:14:43.928Z,1004.00
2018-12-07T07:15:43.912Z,1003.97
2018-12-07T07:16:43.900Z,1003.99
2018-12-07T07:17:43.912Z,1003.98
2018-12-07T07:18:43.877Z,1003.98
2018-12-07T07:19:43.871Z,1003.99
2018-12-07T07:20:43.867Z,1003.98
2018-12-07T07:21:43.853Z,1003.99
2018-12-07T07:22:43.846Z,1004.00
2018-12-07T07:23:44.945Z,1004.02
2018-12-07T07:24:43.816Z,1004.02
2018-12-07T07:25:43.813Z,1004.00
2018-12-07T07:26:44.602Z,1004.08
2018-12-07T07:27:43.797Z,1004.02
2018-12-07T07:28:43.914Z,1004.07
2018-12-07T07:29:43.760Z,1004.08
2018-12-07T07:30:43.765Z,1004.07
2018-12-07T07:31:43.863Z,1004.09
2018-12-07T07:32:43.737Z,1004.10
2018-12-07T07:33:43.718Z,1004.07
2018-12-07T07:34:43.707Z,1004.08
2018-12-07T07:35:43.700Z,1004.05
2018-12-07T07:36:43.684Z,1004.02
2018-12-07T07:37:43.705Z,1004.02
2018-12-07T07:38:43.664Z,1004.06
2018-12-07T07:39:43.652Z,1004.06
2018-12-07T07:40:43.648Z,1003.98
2018-12-07T07:41:43.635Z,1004.01
2018-12-07T07:42:43.620Z,1003.98
2018-12-07T07:43:43.622Z,1003.98
2018-12-07T07:44:43.602Z,1004.02
2018-12-07T07:45:43.588Z,1003.99
2018-12-07T07:46:43.578Z,1003.91
2018-12-07T07:47:43.572Z,1003.98
2018-12-07T07:48:43.576Z,1003.95
2018-12-07T07:49:43.544Z,1003.93
2018-12-07T07:50:43.534Z,1003.95
2018-12-07T07:51:43.525Z,1003.92
2018-12-07T07:52:43.514Z,1003.92
2018-12-07T07:53:43.517Z,1003.86
2018-12-07T07:54:43.551Z,1003.82
2018-12-07T07:55:43.481Z,1003.80
2018-12-07T07:56:43.473Z,1003.79
2018-12-07T07:57:43.461Z,1003.77
2018-12-07T07:58:43.463Z,1003.76
2018-12-07T07:59:43.437Z,1003.78
2018-12-07T08:00:43.428Z,1003.75
2018-12-07T08:01:43.416Z,1003.79
2018-12-07T08:02:43.420Z,1003.78
2018-12-07T08:03:43.405Z,1003.75
2018-12-07T08:04:43.382Z,1003.75
2018-12-07T08:05:43.374Z,1003.69
2018-12-07T08:06:43.361Z,1003.64
2018-12-07T08:07:43.357Z,1003.64
2018-12-07T08:08:43.356Z,1003.59
2018-12-07T08:09:46.153Z,1003.63
2018-12-07T08:10:43.320Z,1003.63
2018-12-07T08:11:43.310Z,1003.60
2018-12-07T08:12:43.300Z,1003.60
2018-12-07T08:13:43.306Z,1003.62
2018-12-07T08:14:43.276Z,1003.57
2018-12-07T08:15:43.267Z,1003.54
2018-12-07T08:16:43.254Z,1003.56
2018-12-07T08:17:43.247Z,1003.55
2018-12-07T08:18:47.118Z,1003.51
2018-12-07T08:19:43.241Z,1003.42
2018-12-07T08:20:43.222Z,1003.41
2018-12-07T08:21:43.206Z,1003.44
2018-12-07T08:22:43.195Z,1003.42
2018-12-07T08:23:43.190Z,1003.44
2018-12-07T08:24:43.169Z,1003.44
2018-12-07T08:25:43.160Z,1003.41
2018-12-07T08:26:43.148Z,1003.42
2018-12-07T08:27:43.148Z,1003.40
2018-12-07T08:28:43.134Z,1003.44
2018-12-07T08:29:43.113Z,1003.44
2018-12-07T08:30:43.104Z,1003.41
2018-12-07T08:31:43.107Z,1003.45
2018-12-07T08:32:43.091Z,1003.42
2018-12-07T08:33:43.094Z,1003.41
2018-12-07T08:34:43.062Z,1003.39
2018-12-07T08:35:43.068Z,1003.40
2018-12-07T08:36:43.656Z,1003.41
2018-12-07T08:37:43.096Z,1003.41
2018-12-07T08:38:43.057Z,1003.40
2018-12-07T08:39:43.011Z,1003.38
2018-12-07T08:40:43.017Z,1003.38
2018-12-07T08:41:43.111Z,1003.33
2018-12-07T08:42:43.152Z,1003.41
2018-12-07T08:43:42.977Z,1003.36
2018-12-07T08:44:43.071Z,1003.37
2018-12-07T08:45:44.137Z,1003.38
2018-12-07T08:46:43.081Z,1003.39
2018-12-07T08:47:43.631Z,1003.38
2018-12-07T08:48:42.963Z,1003.39
2018-12-07T08:49:42.939Z,1003.37
2018-12-07T08:50:42.967Z,1003.36
2018-12-07T08:51:42.918Z,1003.41
2018-12-07T08:52:43.043Z,1003.36
2018-12-07T08:53:42.862Z,1003.35
2018-12-07T08:54:43.454Z,1003.34
2018-12-07T08:55:42.929Z,1003.30
2018-12-07T08:56:43.052Z,1003.32
2018-12-07T08:57:42.831Z,1003.32
2018-12-07T08:58:42.870Z,1003.35
2018-12-07T08:59:42.811Z,1003.31
2018-12-07T09:00:42.787Z,1003.31
2018-12-07T09:01:42.785Z,1003.29
2018-12-07T09:02:42.763Z,1003.26
2018-12-07T09:03:42.754Z,1003.26
2018-12-07T09:04:42.751Z,1003.30
2018-12-07T09:05:42.729Z,1003.24
2018-12-07T09:06:42.719Z,1003.24
2018-12-07T09:07:42.709Z,1003.29
2018-12-07T09:08:42.702Z,1003.23
2018-12-07T09:09:42.703Z,1003.27
2018-12-07T09:10:42.681Z,1003.27
2018-12-07T09:11:42.665Z,1003.20
2018-12-07T09:12:42.661Z,1003.21
2018-12-07T09:13:42.648Z,1003.18
2018-12-07T09:14:42.650Z,1003.18
2018-12-07T09:15:42.623Z,1003.19
2018-12-07T09:16:42.615Z,1003.20
2018-12-07T09:17:42.604Z,1003.18
2018-12-07T09:18:42.596Z,1003.19
2018-12-07T09:19:42.627Z,1003.12
2018-12-07T09:20:42.569Z,1003.12
2018-12-07T09:21:42.560Z,1003.10
2018-12-07T09:22:42.550Z,1003.05
2018-12-07T09:23:49.382Z,1003.06
2018-12-07T09:24:43.557Z,1003.04
2018-12-07T09:25:42.523Z,1002.99
2018-12-07T09:26:42.505Z,1002.97
2018-12-07T09:27:42.502Z,1002.99
2018-12-07T09:28:42.494Z,1002.98
2018-12-07T09:29:42.471Z,1002.91
2018-12-07T09:30:42.476Z,1002.92
2018-12-07T09:31:42.459Z,1002.92
2018-12-07T09:32:42.440Z,1002.91
2018-12-07T09:33:42.430Z,1002.98
2018-12-07T09:34:42.419Z,1002.96
2018-12-07T09:35:42.421Z,1002.90
2018-12-07T09:36:42.399Z,1002.88
2018-12-07T09:37:42.389Z,1002.87
2018-12-07T09:38:42.375Z,1002.81
2018-12-07T09:39:42.365Z,1002.77
2018-12-07T09:40:42.365Z,1002.78
2018-12-07T09:41:42.344Z,1002.76
2018-12-07T09:42:42.334Z,1002.78
2018-12-07T09:43:42.321Z,1002.78
2018-12-07T09:44:42.315Z,1002.77
2018-12-07T09:45:42.312Z,1002.75
2018-12-07T09:46:42.289Z,1002.76
2018-12-07T09:47:42.280Z,1002.75
2018-12-07T09:48:42.272Z,1002.76
2018-12-07T09:49:42.259Z,1002.71
2018-12-07T09:50:42.261Z,1002.71
2018-12-07T09:51:42.235Z,1002.71
2018-12-07T09:52:42.225Z,1002.68
2018-12-07T09:53:42.226Z,1002.66
2018-12-07T09:54:42.213Z,1002.68
2018-12-07T09:55:42.202Z,1002.59
2018-12-07T09:56:42.195Z,1002.63
2018-12-07T09:57:42.174Z,1002.61
2018-12-07T09:58:42.160Z,1002.63
2018-12-07T09:59:42.153Z,1002.60
2018-12-07T10:00:42.167Z,1002.57
2018-12-07T10:01:42.132Z,1002.53
2018-12-07T10:02:42.125Z,1002.57
2018-12-07T10:03:42.107Z,1002.55
2018-12-07T10:04:42.098Z,1002.51
2018-12-07T10:05:42.086Z,1002.48
2018-12-07T10:06:42.114Z,1002.46
2018-12-07T10:07:42.064Z,1002.41
2018-12-07T10:08:42.053Z,1002.40
2018-12-07T10:09:42.047Z,1002.37
2018-12-07T10:10:42.034Z,1002.40
2018-12-07T10:11:42.048Z,1002.31
2018-12-07T10:12:42.010Z,1002.34
2018-12-07T10:13:42.002Z,1002.32
2018-12-07T10:14:41.989Z,1002.25
2018-12-07T10:15:44.763Z,1002.29
2018-12-07T10:16:41.982Z,1002.24
2018-12-07T10:17:41.967Z,1002.25
2018-12-07T10:18:41.957Z,1002.24
2018-12-07T10:19:41.935Z,1002.15
2018-12-07T10:20:41.925Z,1002.14
2018-12-07T10:21:41.940Z,1002.11
2018-12-07T10:22:41.903Z,1002.10
2018-12-07T10:23:41.894Z,1002.05
2018-12-07T10:24:41.880Z,1002.08
2018-12-07T10:25:41.885Z,1002.03
2018-12-07T10:26:41.888Z,1002.01
2018-12-07T10:27:41.848Z,1001.99
2018-12-07T10:28:41.855Z,1002.00
2018-12-07T10:29:41.826Z,1001.99
2018-12-07T10:30:41.825Z,1001.92
2018-12-07T10:31:41.826Z,1001.97
2018-12-07T10:32:41.808Z,1001.93
2018-12-07T10:33:41.874Z,1001.88
2018-12-07T10:34:41.776Z,1001.84
2018-12-07T10:35:41.779Z,1001.84
2018-12-07T10:36:41.751Z,1001.80
2018-12-07T10:37:41.750Z,1001.79
2018-12-07T10:38:41.729Z,1001.71
2018-12-07T10:39:41.719Z,1001.73
2018-12-07T10:40:41.717Z,1001.75
2018-12-07T10:41:41.698Z,1001.71
2018-12-07T10:42:41.707Z,1001.71
2018-12-07T10:43:41.673Z,1001.65
2018-12-07T10:44:41.667Z,1001.63
2018-12-07T10:45:41.652Z,1001.64
2018-12-07T10:46:41.645Z,1001.63
2018-12-07T10:47:41.642Z,1001.60
2018-12-07T10:48:41.639Z,1001.57
2018-12-07T10:49:41.609Z,1001.55
2018-12-07T10:50:41.600Z,1001.58
2018-12-07T10:51:41.589Z,1001.54
2018-12-07T10:52:41.590Z,1001.53
2018-12-07T10:53:41.565Z,1001.48
2018-12-07T10:54:41.556Z,1001.49
2018-12-07T10:55:41.544Z,1001.49
2018-12-07T10:56:41.533Z,1001.40
2018-12-07T10:57:41.537Z,1001.44
2018-12-07T10:58:41.522Z,1001.41
2018-12-07T10:59:41.536Z,1001.41
2018-12-07T11:00:41.494Z,1001.35
2018-12-07T11:01:41.479Z,1001.28
2018-12-07T11:02:41.501Z,1001.32
2018-12-07T11:03:41.465Z,1001.25
2018-12-07T11:04:41.460Z,1001.25
2018-12-07T11:05:41.435Z,1001.23
2018-12-07T11:06:41.425Z,1001.24
2018-12-07T11:07:41.417Z,1001.22
2018-12-07T11:08:41.419Z,1001.17
2018-12-07T11:09:41.396Z,1001.16
2018-12-07T11:10:41.392Z,1001.14
2018-12-07T11:11:41.382Z,1001.14
2018-12-07T11:12:41.361Z,1001.12
2018-12-07T11:13:41.365Z,1001.15
2018-12-07T11:14:41.369Z,1001.11
2018-12-07T11:15:41.366Z,1001.04
2018-12-07T11:16:41.318Z,1001.06
2018-12-07T11:17:41.329Z,1001.01
2018-12-07T11:18:41.304Z,1001.03
2018-12-07T11:19:41.284Z,1000.98
2018-12-07T11:20:41.272Z,1001.06
2018-12-07T11:21:41.263Z,1000.98
2018-12-07T11:22:41.251Z,1000.99
2018-12-07T11:23:41.262Z,1000.92
2018-12-07T11:24:41.238Z,1000.95
2018-12-07T11:25:41.222Z,1000.96
2018-12-07T11:26:41.208Z,1000.90
2018-12-07T11:27:41.204Z,1000.91
2018-12-07T11:28:41.207Z,1000.94
2018-12-07T11:29:41.178Z,1000.85
2018-12-07T11:30:41.162Z,1000.84
2018-12-07T11:31:41.152Z,1000.78
2018-12-07T11:32:41.145Z,1000.81
2018-12-07T11:33:41.185Z,1000.79
2018-12-07T11:34:41.131Z,1000.72
2018-12-07T11:35:41.110Z,1000.75
2018-12-07T11:36:41.101Z,1000.75
2018-12-07T11:37:41.094Z,1000.76
2018-12-07T11:38:41.076Z,1000.68
2018-12-07T11:39:41.090Z,1000.66
2018-12-07T11:40:41.053Z,1000.66
2018-12-07T11:41:41.045Z,1000.70
2018-12-07T11:42:41.033Z,1000.64
2018-12-07T11:43:41.023Z,1000.66
2018-12-07T11:44:41.023Z,1000.62
2018-12-07T11:45:41.001Z,1000.62
2018-12-07T11:46:40.994Z,1000.59
2018-12-07T11:47:40.997Z,1000.49
2018-12-07T11:48:40.969Z,1000.49
2018-12-07T11:49:56.195Z,1000.53
2018-12-07T11:50:40.961Z,1000.52
2018-12-07T11:51:40.941Z,1000.50
2018-12-07T11:52:40.925Z,1000.54
2018-12-07T11:53:40.912Z,1000.49
2018-12-07T11:54:40.915Z,1000.47
2018-12-07T11:55:42.765Z,1000.49
2018-12-07T11:56:40.881Z,1000.45
2018-12-07T11:57:40.869Z,1000.42
2018-12-07T11:58:40.856Z,1000.42
2018-12-07T11:59:40.883Z,1000.43
2018-12-07T12:00:40.840Z,1000.40
2018-12-07T12:01:44.715Z,1000.35
2018-12-07T12:02:40.817Z,1000.35
2018-12-07T12:03:40.803Z,1000.36
2018-12-07T12:04:40.792Z,1000.32
2018-12-07T12:05:40.794Z,1000.32